sensor_id;sensor_type;location;lat;lon;timestamp;temperature;humidity
55036;DHT22;40936;53.008;6.556;2022-11-14T00:00:51;11.70;99.90
55036;DHT22;40936;53.008;6.556;2022-11-14T00:03:17;11.70;99.90
55036;DHT22;40936;53.008;6.556;2022-11-14T00:05:44;11.70;99.90
55036;DHT22;40936;53.008;6.556;2022-11-14T00:08:22;13.00;99.90
55036;DHT22;40936;53.008;6.556;2022-11-14T00:10:50;11.70;99.90
55036;DHT22;40936;53.008;6.556;2022-11-14T00:13:18;11.70;99.90
55036;DHT22;40936;53.008;6.556;2022-11-14T00:15:44;11.70;99.90
55036;DHT22;40936;53.008;6.556;2022-11-14T00:18:12;11.80;99.90
55036;DHT22;40936;53.008;6.556;2022-11-14T00:20:38;11.80;99.90
55036;DHT22;40936;53.008;6.556;2022-11-14T00:23:03;11.90;99.90
55036;DHT22;40936;53.008;6.556;2022-11-14T00:25:30;11.80;99.90
55036;DHT22;40936;53.008;6.556;2022-11-14T00:27:56;11.80;99.90
55036;DHT22;40936;53.008;6.556;2022-11-14T00:30:23;13.30;99.90
55036;DHT22;40936;53.008;6.556;2022-11-14T00:32:49;11.80;99.90
55036;DHT22;40936;53.008;6.556;2022-11-14T00:35:15;13.00;99.90
55036;DHT22;40936;53.008;6.556;2022-11-14T00:37:41;12.10;99.90
55036;DHT22;40936;53.008;6.556;2022-11-14T00:40:07;11.90;99.90
55036;DHT22;40936;53.008;6.556;2022-11-14T00:42:33;11.80;99.90
55036;DHT22;40936;53.008;6.556;2022-11-14T00:44:59;11.90;99.90
55036;DHT22;40936;53.008;6.556;2022-11-14T00:47:24;11.90;99.90
55036;DHT22;40936;53.008;6.556;2022-11-14T00:49:50;11.90;99.90
55036;DHT22;40936;53.008;6.556;2022-11-14T00:52:16;11.90;99.90
55036;DHT22;40936;53.008;6.556;2022-11-14T00:54:41;11.90;99.90
55036;DHT22;40936;53.008;6.556;2022-11-14T00:57:07;11.90;99.90
55036;DHT22;40936;53.008;6.556;2022-11-14T00:59:33;11.90;99.90
55036;DHT22;40936;53.008;6.556;2022-11-14T01:01:58;11.90;99.90
55036;DHT22;40936;53.008;6.556;2022-11-14T01:04:24;12.00;99.90
55036;DHT22;40936;53.008;6.556;2022-11-14T01:06:49;12.20;91.40
55036;DHT22;40936;53.008;6.556;2022-11-14T01:09:15;11.90;84.00
55036;DHT22;40936;53.008;6.556;2022-11-14T01:11:41;11.80;95.80
55036;DHT22;40936;53.008;6.556;2022-11-14T01:14:07;11.90;92.20
55036;DHT22;40936;53.008;6.556;2022-11-14T01:16:33;11.90;96.10
55036;DHT22;40936;53.008;6.556;2022-11-14T01:19:01;11.90;99.80
55036;DHT22;40936;53.008;6.556;2022-11-14T01:21:27;11.90;95.90
55036;DHT22;40936;53.008;6.556;2022-11-14T01:23:52;12.10;94.70
55036;DHT22;40936;53.008;6.556;2022-11-14T01:26:18;11.90;79.70
55036;DHT22;40936;53.008;6.556;2022-11-14T01:28:44;11.80;45.00
55036;DHT22;40936;53.008;6.556;2022-11-14T01:31:13;11.80;68.50
55036;DHT22;40936;53.008;6.556;2022-11-14T01:33:39;11.80;80.40
55036;DHT22;40936;53.008;6.556;2022-11-14T01:36:05;11.80;87.00
55036;DHT22;40936;53.008;6.556;2022-11-14T01:38:31;11.80;94.10
55036;DHT22;40936;53.008;6.556;2022-11-14T01:40:57;11.70;95.50
55036;DHT22;40936;53.008;6.556;2022-11-14T01:43:25;11.70;98.70
55036;DHT22;40936;53.008;6.556;2022-11-14T01:51:32;11.70;90.60
55036;DHT22;40936;53.008;6.556;2022-11-14T01:54:05;11.70;99.90
55036;DHT22;40936;53.008;6.556;2022-11-14T01:56:38;13.10;63.30
55036;DHT22;40936;53.008;6.556;2022-11-14T01:59:11;11.70;41.60
55036;DHT22;40936;53.008;6.556;2022-11-14T02:01:45;11.50;50.40
55036;DHT22;40936;53.008;6.556;2022-11-14T02:04:14;12.10;48.80
55036;DHT22;40936;53.008;6.556;2022-11-14T02:06:42;11.70;72.70
55036;DHT22;40936;53.008;6.556;2022-11-14T02:09:08;11.40;67.10
55036;DHT22;40936;53.008;6.556;2022-11-14T02:11:37;11.60;91.70
55036;DHT22;40936;53.008;6.556;2022-11-14T02:14:04;11.90;99.90
55036;DHT22;40936;53.008;6.556;2022-11-14T02:16:31;11.60;99.90
55036;DHT22;40936;53.008;6.556;2022-11-14T02:18:56;11.60;99.90
55036;DHT22;40936;53.008;6.556;2022-11-14T02:21:22;11.60;99.90
55036;DHT22;40936;53.008;6.556;2022-11-14T02:23:48;11.60;99.90
55036;DHT22;40936;53.008;6.556;2022-11-14T02:26:20;11.60;99.90
55036;DHT22;40936;53.008;6.556;2022-11-14T02:28:46;11.90;99.90
55036;DHT22;40936;53.008;6.556;2022-11-14T02:31:13;11.60;99.90
55036;DHT22;40936;53.008;6.556;2022-11-14T02:33:39;11.60;99.90
55036;DHT22;40936;53.008;6.556;2022-11-14T02:36:05;12.20;99.90
55036;DHT22;40936;53.008;6.556;2022-11-14T02:38:31;11.60;99.90
55036;DHT22;40936;53.008;6.556;2022-11-14T02:40:58;11.70;99.90
55036;DHT22;40936;53.008;6.556;2022-11-14T02:43:24;11.60;99.90
55036;DHT22;40936;53.008;6.556;2022-11-14T02:45:50;11.60;99.90
55036;DHT22;40936;53.008;6.556;2022-11-14T02:48:16;11.60;99.90
55036;DHT22;40936;53.008;6.556;2022-11-14T02:50:41;11.60;99.90
55036;DHT22;40936;53.008;6.556;2022-11-14T02:53:07;11.60;99.90
55036;DHT22;40936;53.008;6.556;2022-11-14T02:55:33;11.60;99.60
55036;DHT22;40936;53.008;6.556;2022-11-14T02:57:58;11.60;64.40
55036;DHT22;40936;53.008;6.556;2022-11-14T03:00:24;11.60;65.60
55036;DHT22;40936;53.008;6.556;2022-11-14T03:02:52;11.60;86.90
55036;DHT22;40936;53.008;6.556;2022-11-14T03:05:18;11.60;88.50
55036;DHT22;40936;53.008;6.556;2022-11-14T03:07:44;11.70;99.90
55036;DHT22;40936;53.008;6.556;2022-11-14T03:10:10;13.30;78.80
55036;DHT22;40936;53.008;6.556;2022-11-14T03:12:36;11.60;58.90
55036;DHT22;40936;53.008;6.556;2022-11-14T03:15:04;11.60;58.60
55036;DHT22;40936;53.008;6.556;2022-11-14T03:17:31;11.70;58.30
55036;DHT22;40936;53.008;6.556;2022-11-14T03:19:57;11.70;52.90
55036;DHT22;40936;53.008;6.556;2022-11-14T03:22:23;11.70;21.00
55036;DHT22;40936;53.008;6.556;2022-11-14T03:24:49;11.70;50.30
55036;DHT22;40936;53.008;6.556;2022-11-14T03:27:14;11.70;45.70
55036;DHT22;40936;53.008;6.556;2022-11-14T03:29:40;12.20;1.00
55036;DHT22;40936;53.008;6.556;2022-11-14T03:32:06;11.70;1.00
55036;DHT22;40936;53.008;6.556;2022-11-14T03:34:31;11.70;1.00
55036;DHT22;40936;53.008;6.556;2022-11-14T03:36:58;11.70;1.00
55036;DHT22;40936;53.008;6.556;2022-11-14T03:39:25;11.60;1.00
55036;DHT22;40936;53.008;6.556;2022-11-14T03:41:51;11.60;99.90
55036;DHT22;40936;53.008;6.556;2022-11-14T03:44:17;13.20;99.90
55036;DHT22;40936;53.008;6.556;2022-11-14T03:46:42;11.60;99.90
55036;DHT22;40936;53.008;6.556;2022-11-14T03:49:08;11.60;99.90
55036;DHT22;40936;53.008;6.556;2022-11-14T03:51:34;11.60;99.90
55036;DHT22;40936;53.008;6.556;2022-11-14T03:54:00;13.10;99.90
55036;DHT22;40936;53.008;6.556;2022-11-14T03:56:26;11.60;99.90
55036;DHT22;40936;53.008;6.556;2022-11-14T03:58:51;11.60;99.90
55036;DHT22;40936;53.008;6.556;2022-11-14T04:01:17;11.60;99.90
55036;DHT22;40936;53.008;6.556;2022-11-14T04:03:43;11.60;99.90
55036;DHT22;40936;53.008;6.556;2022-11-14T04:06:08;11.90;99.90
55036;DHT22;40936;53.008;6.556;2022-11-14T04:08:34;11.60;99.90
55036;DHT22;40936;53.008;6.556;2022-11-14T04:11:00;11.60;1.00
55036;DHT22;40936;53.008;6.556;2022-11-14T04:13:25;11.70;1.00
55036;DHT22;40936;53.008;6.556;2022-11-14T04:15:58;11.50;1.00
55036;DHT22;40936;53.008;6.556;2022-11-14T04:18:24;12.90;1.00
55036;DHT22;40936;53.008;6.556;2022-11-14T04:20:51;11.60;1.00
55036;DHT22;40936;53.008;6.556;2022-11-14T04:23:17;11.40;1.00
55036;DHT22;40936;53.008;6.556;2022-11-14T04:25:43;11.60;1.00
55036;DHT22;40936;53.008;6.556;2022-11-14T04:28:10;11.50;1.00
55036;DHT22;40936;53.008;6.556;2022-11-14T04:30:36;11.50;1.00
55036;DHT22;40936;53.008;6.556;2022-11-14T04:33:01;11.50;1.00
55036;DHT22;40936;53.008;6.556;2022-11-14T04:35:27;11.50;1.00
55036;DHT22;40936;53.008;6.556;2022-11-14T04:37:53;11.50;1.00
55036;DHT22;40936;53.008;6.556;2022-11-14T04:40:18;11.50;1.00
55036;DHT22;40936;53.008;6.556;2022-11-14T04:42:44;11.50;1.00
55036;DHT22;40936;53.008;6.556;2022-11-14T04:45:10;11.50;1.00
55036;DHT22;40936;53.008;6.556;2022-11-14T04:47:35;11.50;1.00
55036;DHT22;40936;53.008;6.556;2022-11-14T04:50:02;11.60;1.00
55036;DHT22;40936;53.008;6.556;2022-11-14T04:52:28;11.60;1.00
55036;DHT22;40936;53.008;6.556;2022-11-14T04:54:53;11.60;1.00
55036;DHT22;40936;53.008;6.556;2022-11-14T04:57:19;11.60;1.00
55036;DHT22;40936;53.008;6.556;2022-11-14T04:59:45;11.60;1.00
55036;DHT22;40936;53.008;6.556;2022-11-14T05:02:10;11.50;1.00
55036;DHT22;40936;53.008;6.556;2022-11-14T05:04:36;12.60;1.00
55036;DHT22;40936;53.008;6.556;2022-11-14T05:07:02;12.80;1.00
55036;DHT22;40936;53.008;6.556;2022-11-14T05:09:28;11.60;1.00
55036;DHT22;40936;53.008;6.556;2022-11-14T05:11:53;11.60;1.00
55036;DHT22;40936;53.008;6.556;2022-11-14T05:14:19;11.90;1.00
55036;DHT22;40936;53.008;6.556;2022-11-14T05:16:44;11.60;1.00
55036;DHT22;40936;53.008;6.556;2022-11-14T05:19:10;11.70;1.00
55036;DHT22;40936;53.008;6.556;2022-11-14T05:21:36;11.60;1.00
55036;DHT22;40936;53.008;6.556;2022-11-14T05:24:01;11.70;1.00
55036;DHT22;40936;53.008;6.556;2022-11-14T05:26:27;11.60;1.00
55036;DHT22;40936;53.008;6.556;2022-11-14T05:28:53;12.00;1.00
55036;DHT22;40936;53.008;6.556;2022-11-14T05:31:18;11.60;1.00
55036;DHT22;40936;53.008;6.556;2022-11-14T05:33:45;12.20;99.90
55036;DHT22;40936;53.008;6.556;2022-11-14T05:36:15;11.60;99.90
55036;DHT22;40936;53.008;6.556;2022-11-14T05:38:41;11.60;99.90
55036;DHT22;40936;53.008;6.556;2022-11-14T05:41:09;11.60;99.90
55036;DHT22;40936;53.008;6.556;2022-11-14T05:43:35;11.60;99.90
55036;DHT22;40936;53.008;6.556;2022-11-14T05:46:03;11.90;99.90
55036;DHT22;40936;53.008;6.556;2022-11-14T05:48:30;11.50;99.90
55036;DHT22;40936;53.008;6.556;2022-11-14T05:50:57;11.50;99.90
55036;DHT22;40936;53.008;6.556;2022-11-14T05:53:23;11.50;99.90
55036;DHT22;40936;53.008;6.556;2022-11-14T05:55:49;11.50;99.90
55036;DHT22;40936;53.008;6.556;2022-11-14T06:00:41;11.70;99.90
55036;DHT22;40936;53.008;6.556;2022-11-14T06:03:07;11.40;99.90
55036;DHT22;40936;53.008;6.556;2022-11-14T06:05:34;11.40;99.90
55036;DHT22;40936;53.008;6.556;2022-11-14T06:08:00;11.40;99.90
55036;DHT22;40936;53.008;6.556;2022-11-14T06:10:26;11.60;99.90
55036;DHT22;40936;53.008;6.556;2022-11-14T06:12:52;11.50;99.90
55036;DHT22;40936;53.008;6.556;2022-11-14T06:15:18;11.50;99.90
55036;DHT22;40936;53.008;6.556;2022-11-14T06:17:44;12.20;99.90
55036;DHT22;40936;53.008;6.556;2022-11-14T06:20:10;11.50;99.90
55036;DHT22;40936;53.008;6.556;2022-11-14T06:22:41;11.50;99.90
55036;DHT22;40936;53.008;6.556;2022-11-14T06:25:07;12.90;99.90
55036;DHT22;40936;53.008;6.556;2022-11-14T06:27:33;14.00;99.90
55036;DHT22;40936;53.008;6.556;2022-11-14T06:29:59;11.50;99.90
55036;DHT22;40936;53.008;6.556;2022-11-14T06:32:24;11.50;99.90
55036;DHT22;40936;53.008;6.556;2022-11-14T06:34:50;11.50;99.90
55036;DHT22;40936;53.008;6.556;2022-11-14T06:37:16;11.50;99.90
55036;DHT22;40936;53.008;6.556;2022-11-14T06:39:41;11.50;99.90
55036;DHT22;40936;53.008;6.556;2022-11-14T06:42:07;11.50;99.90
55036;DHT22;40936;53.008;6.556;2022-11-14T06:44:33;11.40;99.90
55036;DHT22;40936;53.008;6.556;2022-11-14T06:46:58;11.60;99.90
55036;DHT22;40936;53.008;6.556;2022-11-14T06:49:24;11.80;99.90
55036;DHT22;40936;53.008;6.556;2022-11-14T06:51:50;11.40;99.90
55036;DHT22;40936;53.008;6.556;2022-11-14T06:54:16;11.30;99.90
55036;DHT22;40936;53.008;6.556;2022-11-14T06:56:42;11.30;99.90
55036;DHT22;40936;53.008;6.556;2022-11-14T06:59:08;11.20;99.90
55036;DHT22;40936;53.008;6.556;2022-11-14T07:01:33;11.50;99.90
55036;DHT22;40936;53.008;6.556;2022-11-14T07:03:59;11.30;99.90
55036;DHT22;40936;53.008;6.556;2022-11-14T07:06:27;11.70;99.90
55036;DHT22;40936;53.008;6.556;2022-11-14T07:08:55;11.40;99.90
55036;DHT22;40936;53.008;6.556;2022-11-14T07:11:23;11.80;99.90
55036;DHT22;40936;53.008;6.556;2022-11-14T07:14:00;11.20;99.90
55036;DHT22;40936;53.008;6.556;2022-11-14T07:16:30;11.20;99.90
55036;DHT22;40936;53.008;6.556;2022-11-14T07:19:00;11.20;99.90
55036;DHT22;40936;53.008;6.556;2022-11-14T07:21:28;13.10;99.90
55036;DHT22;40936;53.008;6.556;2022-11-14T07:23:55;11.60;99.90
55036;DHT22;40936;53.008;6.556;2022-11-14T07:26:22;11.20;99.90
55036;DHT22;40936;53.008;6.556;2022-11-14T07:28:47;11.20;99.90
55036;DHT22;40936;53.008;6.556;2022-11-14T07:31:16;11.20;99.90
55036;DHT22;40936;53.008;6.556;2022-11-14T07:33:43;11.20;99.90
55036;DHT22;40936;53.008;6.556;2022-11-14T07:36:10;11.20;99.90
55036;DHT22;40936;53.008;6.556;2022-11-14T07:38:36;11.20;99.90
55036;DHT22;40936;53.008;6.556;2022-11-14T07:41:03;12.50;99.90
55036;DHT22;40936;53.008;6.556;2022-11-14T07:43:30;11.20;99.90
55036;DHT22;40936;53.008;6.556;2022-11-14T07:46:06;11.00;99.90
55036;DHT22;40936;53.008;6.556;2022-11-14T07:48:33;11.20;99.90
55036;DHT22;40936;53.008;6.556;2022-11-14T07:51:04;11.20;99.90
55036;DHT22;40936;53.008;6.556;2022-11-14T07:53:30;11.20;99.90
55036;DHT22;40936;53.008;6.556;2022-11-14T07:56:00;11.30;99.90
55036;DHT22;40936;53.008;6.556;2022-11-14T07:58:26;12.20;99.90
55036;DHT22;40936;53.008;6.556;2022-11-14T08:00:51;11.20;99.90
55036;DHT22;40936;53.008;6.556;2022-11-14T08:05:43;11.90;99.90
55036;DHT22;40936;53.008;6.556;2022-11-14T08:08:09;11.30;99.90
55036;DHT22;40936;53.008;6.556;2022-11-14T08:10:35;11.50;99.90
55036;DHT22;40936;53.008;6.556;2022-11-14T08:13:03;12.70;74.40
55036;DHT22;40936;53.008;6.556;2022-11-14T08:15:29;11.30;99.90
55036;DHT22;40936;53.008;6.556;2022-11-14T08:17:59;11.70;99.90
55036;DHT22;40936;53.008;6.556;2022-11-14T08:20:26;11.70;99.90
55036;DHT22;40936;53.008;6.556;2022-11-14T08:23:04;10.70;99.90
55036;DHT22;40936;53.008;6.556;2022-11-14T08:25:31;11.60;96.30
55036;DHT22;40936;53.008;6.556;2022-11-14T08:27:57;11.60;90.10
55036;DHT22;40936;53.008;6.556;2022-11-14T08:30:23;11.60;1.00
55036;DHT22;40936;53.008;6.556;2022-11-14T08:32:49;11.60;1.00
55036;DHT22;40936;53.008;6.556;2022-11-14T08:35:14;11.70;99.90
55036;DHT22;40936;53.008;6.556;2022-11-14T08:37:40;11.50;99.90
55036;DHT22;40936;53.008;6.556;2022-11-14T08:40:06;11.60;99.90
55036;DHT22;40936;53.008;6.556;2022-11-14T08:42:32;11.60;99.90
55036;DHT22;40936;53.008;6.556;2022-11-14T08:44:57;11.70;99.90
55036;DHT22;40936;53.008;6.556;2022-11-14T08:47:23;11.70;99.90
55036;DHT22;40936;53.008;6.556;2022-11-14T08:49:49;11.70;99.90
55036;DHT22;40936;53.008;6.556;2022-11-14T08:52:14;11.90;99.90
55036;DHT22;40936;53.008;6.556;2022-11-14T08:54:40;11.90;99.90
55036;DHT22;40936;53.008;6.556;2022-11-14T08:57:05;11.70;99.90
55036;DHT22;40936;53.008;6.556;2022-11-14T08:59:31;11.80;99.90
55036;DHT22;40936;53.008;6.556;2022-11-14T09:01:57;11.80;99.90
55036;DHT22;40936;53.008;6.556;2022-11-14T09:04:23;11.80;99.90
55036;DHT22;40936;53.008;6.556;2022-11-14T09:06:49;11.90;99.90
55036;DHT22;40936;53.008;6.556;2022-11-14T09:09:16;12.00;99.90
55036;DHT22;40936;53.008;6.556;2022-11-14T09:11:42;12.60;99.90
55036;DHT22;40936;53.008;6.556;2022-11-14T09:14:08;12.50;99.90
55036;DHT22;40936;53.008;6.556;2022-11-14T09:16:33;13.00;99.90
55036;DHT22;40936;53.008;6.556;2022-11-14T09:18:59;12.20;99.90
55036;DHT22;40936;53.008;6.556;2022-11-14T09:21:25;12.30;99.90
55036;DHT22;40936;53.008;6.556;2022-11-14T09:23:51;12.40;99.90
55036;DHT22;40936;53.008;6.556;2022-11-14T09:26:17;12.40;98.70
55036;DHT22;40936;53.008;6.556;2022-11-14T09:28:44;12.40;76.10
55036;DHT22;40936;53.008;6.556;2022-11-14T09:31:11;12.30;1.00
55036;DHT22;40936;53.008;6.556;2022-11-14T09:33:37;12.90;1.00
55036;DHT22;40936;53.008;6.556;2022-11-14T09:36:07;12.20;1.00
55036;DHT22;40936;53.008;6.556;2022-11-14T09:38:33;12.20;1.00
55036;DHT22;40936;53.008;6.556;2022-11-14T09:41:25;12.30;1.00
55036;DHT22;40936;53.008;6.556;2022-11-14T09:44:23;12.30;1.00
55036;DHT22;40936;53.008;6.556;2022-11-14T09:47:07;12.20;1.00
55036;DHT22;40936;53.008;6.556;2022-11-14T09:52:17;12.20;1.00
55036;DHT22;40936;53.008;6.556;2022-11-14T09:54:54;12.60;1.00
55036;DHT22;40936;53.008;6.556;2022-11-14T09:57:20;12.40;1.00
55036;DHT22;40936;53.008;6.556;2022-11-14T09:59:47;12.40;1.00
55036;DHT22;40936;53.008;6.556;2022-11-14T10:07:33;12.90;99.90
55036;DHT22;40936;53.008;6.556;2022-11-14T10:10:32;12.90;99.90
55036;DHT22;40936;53.008;6.556;2022-11-14T10:23:51;12.80;99.90
55036;DHT22;40936;53.008;6.556;2022-11-14T10:39:43;13.10;99.90
55036;DHT22;40936;53.008;6.556;2022-11-14T10:44:56;13.20;99.90
55036;DHT22;40936;53.008;6.556;2022-11-14T10:47:32;13.10;99.90
55036;DHT22;40936;53.008;6.556;2022-11-14T10:50:11;13.00;99.90
55036;DHT22;40936;53.008;6.556;2022-11-14T10:52:41;13.00;99.90
55036;DHT22;40936;53.008;6.556;2022-11-14T10:55:16;12.90;99.90
55036;DHT22;40936;53.008;6.556;2022-11-14T10:57:44;12.90;99.90
55036;DHT22;40936;53.008;6.556;2022-11-14T11:00:18;12.90;99.90
55036;DHT22;40936;53.008;6.556;2022-11-14T11:02:55;12.90;99.90
55036;DHT22;40936;53.008;6.556;2022-11-14T11:05:29;13.00;99.90
55036;DHT22;40936;53.008;6.556;2022-11-14T11:07:58;13.00;99.90
55036;DHT22;40936;53.008;6.556;2022-11-14T11:10:44;13.00;99.90
55036;DHT22;40936;53.008;6.556;2022-11-14T11:15:59;13.20;99.90
55036;DHT22;40936;53.008;6.556;2022-11-14T11:18:35;13.20;99.90
55036;DHT22;40936;53.008;6.556;2022-11-14T11:21:12;13.20;99.90
55036;DHT22;40936;53.008;6.556;2022-11-14T11:23:52;13.10;99.90
55036;DHT22;40936;53.008;6.556;2022-11-14T11:26:32;13.00;99.90
55036;DHT22;40936;53.008;6.556;2022-11-14T11:31:53;12.90;99.90
55036;DHT22;40936;53.008;6.556;2022-11-14T11:34:24;12.90;99.90
55036;DHT22;40936;53.008;6.556;2022-11-14T11:39:33;13.00;99.90
55036;DHT22;40936;53.008;6.556;2022-11-14T11:42:04;12.90;99.90
55036;DHT22;40936;53.008;6.556;2022-11-14T11:44:39;13.00;99.90
55036;DHT22;40936;53.008;6.556;2022-11-14T11:47:12;13.00;99.90
55036;DHT22;40936;53.008;6.556;2022-11-14T11:49:47;13.30;99.90
55036;DHT22;40936;53.008;6.556;2022-11-14T11:52:27;13.10;99.90
55036;DHT22;40936;53.008;6.556;2022-11-14T11:57:35;13.10;99.90
55036;DHT22;40936;53.008;6.556;2022-11-14T12:00:13;13.10;99.90
55036;DHT22;40936;53.008;6.556;2022-11-14T12:02:41;13.10;99.90
55036;DHT22;40936;53.008;6.556;2022-11-14T12:05:22;13.10;99.90
55036;DHT22;40936;53.008;6.556;2022-11-14T12:10:25;13.20;99.90
55036;DHT22;40936;53.008;6.556;2022-11-14T12:21:52;13.10;99.90
55036;DHT22;40936;53.008;6.556;2022-11-14T12:27:44;13.20;99.90
55036;DHT22;40936;53.008;6.556;2022-11-14T12:30:20;13.20;99.90
55036;DHT22;40936;53.008;6.556;2022-11-14T12:33:00;13.20;99.90
55036;DHT22;40936;53.008;6.556;2022-11-14T12:35:30;13.20;99.90
55036;DHT22;40936;53.008;6.556;2022-11-14T12:37:58;13.20;99.90
55036;DHT22;40936;53.008;6.556;2022-11-14T12:40:37;13.20;99.90
55036;DHT22;40936;53.008;6.556;2022-11-14T12:43:23;13.20;99.90
55036;DHT22;40936;53.008;6.556;2022-11-14T12:50:52;13.20;99.90
55036;DHT22;40936;53.008;6.556;2022-11-14T13:01:47;13.20;99.90
55036;DHT22;40936;53.008;6.556;2022-11-14T13:07:21;13.20;99.90
55036;DHT22;40936;53.008;6.556;2022-11-14T13:10:28;13.30;99.90
55036;DHT22;40936;53.008;6.556;2022-11-14T13:13:13;13.20;99.90
55036;DHT22;40936;53.008;6.556;2022-11-14T13:16:00;13.30;99.90
55036;DHT22;40936;53.008;6.556;2022-11-14T13:19:15;13.30;99.90
55036;DHT22;40936;53.008;6.556;2022-11-14T13:27:27;13.30;99.90
55036;DHT22;40936;53.008;6.556;2022-11-14T13:29:53;13.50;99.90
55036;DHT22;40936;53.008;6.556;2022-11-14T13:46:43;13.20;99.90
55036;DHT22;40936;53.008;6.556;2022-11-14T13:52:00;13.20;99.90
55036;DHT22;40936;53.008;6.556;2022-11-14T13:54:26;13.40;99.90
55036;DHT22;40936;53.008;6.556;2022-11-14T13:56:59;13.20;99.90
55036;DHT22;40936;53.008;6.556;2022-11-14T14:21:56;12.90;99.90
55036;DHT22;40936;53.008;6.556;2022-11-14T14:27:35;12.80;99.90
55036;DHT22;40936;53.008;6.556;2022-11-14T14:32:39;12.80;99.90
55036;DHT22;40936;53.008;6.556;2022-11-14T14:35:25;12.80;99.90
55036;DHT22;40936;53.008;6.556;2022-11-14T14:37:53;12.70;99.90
55036;DHT22;40936;53.008;6.556;2022-11-14T14:40:39;13.30;99.90
55036;DHT22;40936;53.008;6.556;2022-11-14T14:43:05;12.60;99.90
55036;DHT22;40936;53.008;6.556;2022-11-14T14:45:43;12.60;99.90
55036;DHT22;40936;53.008;6.556;2022-11-14T14:48:17;12.60;99.90
55036;DHT22;40936;53.008;6.556;2022-11-14T14:50:51;12.50;99.90
55036;DHT22;40936;53.008;6.556;2022-11-14T14:55:58;12.50;99.90
55036;DHT22;40936;53.008;6.556;2022-11-14T14:58:32;12.40;99.90
55036;DHT22;40936;53.008;6.556;2022-11-14T15:01:02;12.40;99.90
55036;DHT22;40936;53.008;6.556;2022-11-14T15:03:36;12.60;99.90
55036;DHT22;40936;53.008;6.556;2022-11-14T15:06:05;12.30;99.90
55036;DHT22;40936;53.008;6.556;2022-11-14T15:08:35;12.30;99.90
55036;DHT22;40936;53.008;6.556;2022-11-14T15:11:02;12.30;99.90
55036;DHT22;40936;53.008;6.556;2022-11-14T15:13:29;12.30;99.90
55036;DHT22;40936;53.008;6.556;2022-11-14T15:15:56;12.30;99.90
55036;DHT22;40936;53.008;6.556;2022-11-14T15:18:28;12.30;99.90
55036;DHT22;40936;53.008;6.556;2022-11-14T15:23:35;12.40;99.90
55036;DHT22;40936;53.008;6.556;2022-11-14T15:26:03;12.70;99.90
55036;DHT22;40936;53.008;6.556;2022-11-14T15:28:30;12.40;99.90
55036;DHT22;40936;53.008;6.556;2022-11-14T15:30:58;12.60;99.90
55036;DHT22;40936;53.008;6.556;2022-11-14T15:33:30;12.50;99.90
55036;DHT22;40936;53.008;6.556;2022-11-14T15:36:14;12.50;99.90
55036;DHT22;40936;53.008;6.556;2022-11-14T15:39:04;12.60;99.90
55036;DHT22;40936;53.008;6.556;2022-11-14T15:41:31;12.70;99.90
55036;DHT22;40936;53.008;6.556;2022-11-14T15:43:57;12.70;99.90
55036;DHT22;40936;53.008;6.556;2022-11-14T15:48:59;12.70;99.90
55036;DHT22;40936;53.008;6.556;2022-11-14T15:51:58;12.70;99.90
55036;DHT22;40936;53.008;6.556;2022-11-14T15:54:34;12.70;99.90
55036;DHT22;40936;53.008;6.556;2022-11-14T15:57:12;13.20;99.90
55036;DHT22;40936;53.008;6.556;2022-11-14T15:59:39;12.70;99.90
55036;DHT22;40936;53.008;6.556;2022-11-14T16:02:27;12.70;99.90
55036;DHT22;40936;53.008;6.556;2022-11-14T16:04:54;12.70;99.90
55036;DHT22;40936;53.008;6.556;2022-11-14T16:07:20;12.70;99.90
55036;DHT22;40936;53.008;6.556;2022-11-14T16:09:47;12.90;99.90
55036;DHT22;40936;53.008;6.556;2022-11-14T16:12:13;12.70;99.90
55036;DHT22;40936;53.008;6.556;2022-11-14T16:14:39;12.60;99.90
55036;DHT22;40936;53.008;6.556;2022-11-14T16:17:12;12.60;99.90
55036;DHT22;40936;53.008;6.556;2022-11-14T16:19:38;12.70;99.90
55036;DHT22;40936;53.008;6.556;2022-11-14T16:22:05;12.60;99.90
55036;DHT22;40936;53.008;6.556;2022-11-14T16:24:30;12.60;99.90
55036;DHT22;40936;53.008;6.556;2022-11-14T16:26:56;12.60;99.90
55036;DHT22;40936;53.008;6.556;2022-11-14T16:29:24;12.60;99.90
55036;DHT22;40936;53.008;6.556;2022-11-14T16:31:50;12.60;99.90
55036;DHT22;40936;53.008;6.556;2022-11-14T16:34:22;12.60;99.90
55036;DHT22;40936;53.008;6.556;2022-11-14T16:36:48;12.60;99.90
55036;DHT22;40936;53.008;6.556;2022-11-14T16:39:16;12.60;99.90
55036;DHT22;40936;53.008;6.556;2022-11-14T16:41:41;12.60;99.90
55036;DHT22;40936;53.008;6.556;2022-11-14T16:44:13;12.60;99.90
55036;DHT22;40936;53.008;6.556;2022-11-14T16:46:40;12.60;99.90
55036;DHT22;40936;53.008;6.556;2022-11-14T16:49:06;12.50;99.90
55036;DHT22;40936;53.008;6.556;2022-11-14T16:51:31;12.50;99.90
55036;DHT22;40936;53.008;6.556;2022-11-14T16:53:59;12.50;99.90
55036;DHT22;40936;53.008;6.556;2022-11-14T16:56:25;12.50;99.90
55036;DHT22;40936;53.008;6.556;2022-11-14T16:58:54;12.50;99.90
55036;DHT22;40936;53.008;6.556;2022-11-14T17:01:20;12.50;99.90
55036;DHT22;40936;53.008;6.556;2022-11-14T17:03:46;13.40;99.90
55036;DHT22;40936;53.008;6.556;2022-11-14T17:06:12;12.50;99.90
55036;DHT22;40936;53.008;6.556;2022-11-14T17:08:37;12.50;99.90
55036;DHT22;40936;53.008;6.556;2022-11-14T17:11:09;12.50;99.90
55036;DHT22;40936;53.008;6.556;2022-11-14T17:13:35;12.40;99.90
55036;DHT22;40936;53.008;6.556;2022-11-14T17:16:02;12.50;99.90
55036;DHT22;40936;53.008;6.556;2022-11-14T17:18:28;12.50;99.90
55036;DHT22;40936;53.008;6.556;2022-11-14T17:20:54;12.40;99.90
55036;DHT22;40936;53.008;6.556;2022-11-14T17:23:20;13.20;99.90
55036;DHT22;40936;53.008;6.556;2022-11-14T17:25:46;12.30;99.90
55036;DHT22;40936;53.008;6.556;2022-11-14T17:28:12;12.20;99.90
55036;DHT22;40936;53.008;6.556;2022-11-14T17:30:41;12.60;99.90
55036;DHT22;40936;53.008;6.556;2022-11-14T17:33:07;12.00;99.90
55036;DHT22;40936;53.008;6.556;2022-11-14T17:35:36;11.90;99.90
55036;DHT22;40936;53.008;6.556;2022-11-14T17:38:02;11.90;99.90
55036;DHT22;40936;53.008;6.556;2022-11-14T17:40:27;11.80;99.90
55036;DHT22;40936;53.008;6.556;2022-11-14T17:42:53;11.70;99.90
55036;DHT22;40936;53.008;6.556;2022-11-14T17:45:18;11.60;99.90
55036;DHT22;40936;53.008;6.556;2022-11-14T17:47:44;11.60;1.00
55036;DHT22;40936;53.008;6.556;2022-11-14T17:50:10;11.70;1.00
55036;DHT22;40936;53.008;6.556;2022-11-14T17:52:36;11.50;1.00
55036;DHT22;40936;53.008;6.556;2022-11-14T17:55:02;11.50;1.00
55036;DHT22;40936;53.008;6.556;2022-11-14T17:57:28;11.60;1.00
55036;DHT22;40936;53.008;6.556;2022-11-14T17:59:53;11.60;1.00
55036;DHT22;40936;53.008;6.556;2022-11-14T18:02:19;11.60;1.00
55036;DHT22;40936;53.008;6.556;2022-11-14T18:04:45;11.70;1.00
55036;DHT22;40936;53.008;6.556;2022-11-14T18:07:11;11.70;1.00